Highwood, Illinois
Current Conditions -  °F | °C
As of 1:52 PM on Friday 28 Nov 2014 (Local Time) from KPWK Reporting Station
Overcast Overcast  
Wind Chill: 19°   Ceiling: 10000
Heat Index: 30°   Visibility: 10mi
Dew Point: 19°   Wind: 16mph
Humidity: 64%   Direction: 160°SSE
Pressure: 30.03"   Gusts: NA
Location:  42.2°N, 87.81°W
Report Text: KPWK 281952Z 16014KT 10SM OVC100 M01/M07 A3003 RMK AO2 SLP179 T10111072
Loading
Personal Weather Stations






























Interactive Weather Map New forecast layout! Learn more

10-Day Weather Forecast

Advertisements
Track Severe Weather on mobile